createdAt,value
2018-12-09T00:02:34.402Z,72.61
2018-12-09T00:05:13.712Z,72.35
2018-12-09T00:07:50.139Z,72.10
2018-12-09T00:10:28.734Z,71.94
2018-12-09T00:13:10.992Z,71.30
2018-12-09T00:15:52.551Z,70.62
2018-12-09T00:18:33.186Z,70.88
2018-12-09T00:21:12.971Z,71.05
2018-12-09T00:23:47.692Z,70.20
2018-12-09T00:26:26.509Z,70.15
2018-12-09T00:29:05.215Z,70.23
2018-12-09T00:31:42.548Z,69.46
2018-12-09T00:34:20.452Z,69.50
2018-12-09T00:36:59.578Z,69.77
2018-12-09T00:39:40.934Z,69.84
2018-12-09T00:42:19.421Z,69.60
2018-12-09T00:45:00.223Z,69.90
2018-12-09T00:47:39.567Z,69.82
2018-12-09T00:50:21.786Z,70.06
2018-12-09T00:53:06.607Z,69.77
2018-12-09T00:55:48.580Z,69.12
2018-12-09T00:58:25.380Z,69.36
2018-12-09T01:01:04.354Z,69.28
2018-12-09T01:03:42.739Z,69.36
2018-12-09T01:06:23.695Z,69.21
2018-12-09T01:09:03.473Z,69.35
2018-12-09T01:11:46.355Z,68.74
2018-12-09T01:14:27.779Z,68.41
2018-12-09T01:17:05.897Z,68.28
2018-12-09T01:19:42.290Z,67.72
2018-12-09T01:22:21.353Z,67.53
2018-12-09T01:25:00.105Z,67.34
2018-12-09T01:27:38.332Z,67.10
2018-12-09T01:30:15.577Z,66.74
2018-12-09T01:32:50.695Z,66.87
2018-12-09T01:35:31.283Z,66.44
2018-12-09T01:38:08.734Z,66.86
2018-12-09T01:40:48.933Z,67.71
2018-12-09T01:43:23.986Z,70.39
2018-12-09T01:45:59.209Z,71.60
2018-12-09T01:48:33.918Z,71.58
2018-12-09T01:51:09.423Z,72.54
2018-12-09T01:54:18.540Z,73.10
2018-12-09T01:57:05.360Z,72.48
2018-12-09T01:59:40.106Z,73.55
2018-12-09T02:02:21.555Z,74.40
2018-12-09T02:04:56.888Z,72.79
2018-12-09T02:07:32.865Z,72.53
2018-12-09T02:10:08.226Z,71.92
2018-12-09T02:12:46.885Z,71.45
2018-12-09T02:20:51.939Z,71.63
2018-12-09T02:23:30.534Z,71.53
2018-12-09T02:26:09.454Z,71.77
2018-12-09T02:28:49.618Z,71.72
2018-12-09T02:31:27.709Z,71.63
2018-12-09T02:37:07.047Z,73.13
2018-12-09T02:39:47.885Z,72.91
2018-12-09T02:42:29.035Z,73.09
2018-12-09T02:45:06.515Z,72.41
2018-12-09T02:47:51.212Z,71.91
2018-12-09T02:50:33.409Z,71.05
2018-12-09T02:53:10.553Z,71.66
2018-12-09T02:55:48.453Z,70.72
2018-12-09T02:58:29.553Z,70.99
2018-12-09T03:01:10.351Z,71.02
2018-12-09T03:03:48.915Z,71.25
2018-12-09T03:06:29.789Z,71.49
2018-12-09T03:09:11.193Z,73.22
2018-12-09T03:11:50.501Z,76.39
2018-12-09T03:14:30.343Z,78.65
2018-12-09T03:17:10.526Z,79.21
2018-12-09T03:24:51.995Z,82.40
2018-12-09T03:27:31.517Z,82.59
2018-12-09T03:30:13.317Z,83.44
2018-12-09T03:32:55.206Z,83.61
2018-12-09T03:35:35.999Z,83.21
2018-12-09T03:38:15.787Z,83.36
2018-12-09T03:40:58.541Z,83.82
2018-12-09T03:43:34.531Z,84.25
2018-12-09T03:46:15.809Z,83.06
2018-12-09T03:48:57.753Z,82.85
2018-12-09T03:51:39.718Z,82.93
2018-12-09T03:54:18.932Z,81.67
2018-12-09T03:57:02.917Z,81.99
2018-12-09T03:59:38.127Z,81.34
2018-12-09T04:02:15.991Z,80.77
2018-12-09T04:04:57.081Z,79.65
2018-12-09T04:07:34.302Z,78.85
2018-12-09T04:10:14.895Z,77.32
2018-12-09T04:12:55.946Z,77.01
2018-12-09T04:15:36.812Z,76.36
2018-12-09T04:18:19.228Z,75.81
2018-12-09T04:20:57.198Z,75.34
2018-12-09T04:23:35.998Z,75.40
2018-12-09T04:26:18.994Z,75.07
2018-12-09T04:29:00.412Z,74.75
2018-12-09T04:31:41.438Z,73.70
2018-12-09T04:34:22.090Z,72.42
2018-12-09T04:37:03.546Z,72.87
2018-12-09T04:39:39.795Z,73.07
2018-12-09T04:42:16.787Z,73.21
2018-12-09T04:44:54.605Z,72.78
2018-12-09T04:47:40.000Z,72.93
2018-12-09T04:50:15.398Z,73.50
2018-12-09T04:52:51.790Z,73.16
2018-12-09T04:55:27.897Z,73.73
2018-12-09T04:58:04.199Z,75.30
2018-12-09T05:00:53.885Z,75.89
2018-12-09T05:03:29.608Z,76.18
2018-12-09T05:06:07.342Z,76.88
2018-12-09T05:08:45.398Z,77.58
2018-12-09T05:11:26.991Z,77.96
2018-12-09T05:14:07.047Z,78.45
2018-12-09T05:16:44.020Z,78.45
2018-12-09T05:19:18.522Z,79.38
2018-12-09T05:21:56.277Z,79.71
2018-12-09T05:24:30.998Z,79.76
2018-12-09T05:27:13.690Z,80.41
2018-12-09T05:29:53.194Z,80.72
2018-12-09T05:32:33.064Z,81.41
2018-12-09T05:35:08.750Z,82.40
2018-12-09T05:37:55.971Z,83.09
2018-12-09T05:40:34.347Z,82.54
2018-12-09T05:43:14.943Z,82.91
2018-12-09T05:45:56.148Z,83.90
2018-12-09T05:48:36.008Z,83.55
2018-12-09T05:51:15.473Z,84.08
2018-12-09T05:53:50.226Z,84.15
2018-12-09T05:56:28.253Z,82.12
2018-12-09T05:59:15.474Z,83.31
2018-12-09T06:01:50.639Z,85.79
2018-12-09T06:04:31.425Z,87.02
2018-12-09T06:07:13.171Z,87.39
2018-12-09T06:09:48.836Z,88.19
2018-12-09T06:12:27.475Z,88.45
2018-12-09T06:15:06.276Z,89.19
2018-12-09T06:17:42.046Z,88.99
2018-12-09T06:20:23.066Z,88.66
2018-12-09T06:22:58.588Z,87.57
2018-12-09T06:25:48.116Z,87.56
2018-12-09T06:28:25.984Z,86.73
2018-12-09T06:31:06.565Z,87.65
2018-12-09T06:33:51.631Z,87.25
2018-12-09T06:36:26.334Z,87.35
2018-12-09T06:39:01.028Z,87.64
2018-12-09T06:41:36.396Z,87.71
2018-12-09T06:44:11.414Z,87.60
2018-12-09T06:46:46.587Z,87.84
2018-12-09T06:49:21.026Z,88.29
2018-12-09T06:51:57.978Z,87.28
2018-12-09T06:54:32.512Z,87.91
2018-12-09T06:57:22.359Z,87.83
2018-12-09T07:00:10.062Z,88.58
2018-12-09T07:02:47.909Z,88.11
2018-12-09T07:05:22.638Z,87.21
2018-12-09T07:08:00.126Z,87.48
2018-12-09T07:10:35.406Z,87.44
2018-12-09T07:13:18.739Z,87.20
2018-12-09T07:16:02.142Z,87.56
2018-12-09T07:18:44.641Z,87.92
2018-12-09T07:21:27.035Z,87.66
2018-12-09T07:24:06.739Z,87.58
2018-12-09T07:26:41.971Z,87.49
2018-12-09T07:29:23.201Z,86.91
2018-12-09T07:31:57.838Z,86.41
2018-12-09T07:34:38.974Z,85.99
2018-12-09T07:37:18.774Z,86.23
2018-12-09T07:39:57.664Z,84.92
2018-12-09T07:42:32.384Z,84.34
2018-12-09T07:45:10.199Z,84.15
2018-12-09T07:47:51.297Z,83.64
2018-12-09T07:50:33.899Z,83.31
2018-12-09T07:53:17.285Z,83.62
2018-12-09T07:55:55.727Z,82.24
2018-12-09T08:01:40.865Z,83.78
2018-12-09T08:04:22.490Z,82.50
2018-12-09T08:07:01.013Z,82.11
2018-12-09T08:09:51.620Z,82.00
2018-12-09T08:12:27.533Z,81.90
2018-12-09T08:15:07.188Z,81.73
2018-12-09T08:17:44.597Z,80.78
2018-12-09T08:20:23.030Z,80.32
2018-12-09T08:22:58.076Z,80.89
2018-12-09T08:25:49.188Z,81.33
2018-12-09T08:28:27.533Z,80.59
2018-12-09T08:31:05.787Z,79.90
2018-12-09T08:33:45.067Z,80.92
2018-12-09T08:36:36.298Z,80.35
2018-12-09T08:39:16.359Z,80.75
2018-12-09T08:41:51.281Z,81.25
2018-12-09T08:44:30.873Z,81.13
2018-12-09T08:47:20.074Z,81.67
2018-12-09T08:50:00.970Z,81.32
2018-12-09T08:52:37.882Z,82.10
2018-12-09T08:55:17.855Z,81.35
2018-12-09T08:57:55.778Z,82.03
2018-12-09T09:00:36.231Z,81.63
2018-12-09T09:03:21.392Z,81.37
2018-12-09T09:06:15.238Z,81.63
2018-12-09T09:11:37.312Z,81.21
2018-12-09T09:14:15.991Z,81.08
2018-12-09T09:16:57.668Z,81.25
2018-12-09T09:19:41.035Z,80.94
2018-12-09T09:22:22.767Z,80.62
2018-12-09T09:24:59.116Z,81.13
2018-12-09T09:27:39.760Z,80.87
2018-12-09T09:30:20.404Z,80.48
2018-12-09T09:32:58.975Z,79.84
2018-12-09T09:35:37.202Z,79.87
2018-12-09T09:38:15.345Z,79.32
2018-12-09T09:40:53.097Z,79.27
2018-12-09T09:43:27.521Z,77.31
2018-12-09T09:46:04.588Z,77.45
2018-12-09T09:48:45.855Z,77.46
2018-12-09T09:51:20.330Z,77.30
2018-12-09T09:53:55.035Z,76.40
2018-12-09T09:56:32.638Z,76.36
2018-12-09T09:59:13.686Z,75.33
2018-12-09T10:01:48.145Z,75.50
2018-12-09T10:04:24.479Z,75.46
2018-12-09T10:07:03.522Z,75.05
2018-12-09T10:09:44.352Z,74.34
2018-12-09T10:12:43.886Z,73.75
2018-12-09T10:15:21.906Z,74.83
2018-12-09T10:18:02.714Z,74.62
2018-12-09T10:23:38.791Z,72.44
2018-12-09T10:26:13.899Z,72.51
2018-12-09T10:28:50.124Z,71.94
2018-12-09T10:31:29.551Z,70.83
2018-12-09T10:34:04.278Z,71.32
2018-12-09T10:36:39.398Z,70.75
2018-12-09T10:39:13.885Z,71.00
2018-12-09T10:41:48.434Z,71.54
2018-12-09T10:44:23.405Z,70.00
2018-12-09T10:50:06.850Z,71.23
2018-12-09T10:52:41.481Z,70.67
2018-12-09T10:55:16.179Z,70.05
2018-12-09T10:57:51.065Z,70.15
2018-12-09T11:00:31.328Z,70.73
2018-12-09T11:03:06.349Z,70.65
2018-12-09T11:05:42.073Z,70.46
2018-12-09T11:08:16.823Z,71.42
2018-12-09T11:10:51.630Z,71.09
2018-12-09T11:13:26.102Z,71.71
2018-12-09T11:16:00.516Z,72.47
2018-12-09T11:18:35.857Z,70.96
2018-12-09T11:21:10.710Z,73.03
2018-12-09T11:23:45.870Z,74.28
2018-12-09T11:26:20.866Z,74.90
2018-12-09T11:28:55.201Z,75.98
2018-12-09T11:34:25.884Z,75.68
2018-12-09T11:37:17.044Z,76.34
2018-12-09T11:39:57.485Z,76.66
2018-12-09T11:42:34.230Z,76.85
2018-12-09T11:45:12.109Z,76.28
2018-12-09T11:47:51.930Z,75.87
2018-12-09T11:53:41.609Z,75.42
2018-12-09T11:56:17.942Z,74.88
2018-12-09T11:58:56.538Z,74.81
2018-12-09T12:01:37.399Z,75.00
2018-12-09T12:04:12.178Z,74.46
2018-12-09T12:06:54.045Z,74.39
2018-12-09T12:09:35.694Z,75.29
2018-12-09T12:15:10.956Z,76.38
2018-12-09T12:20:41.834Z,76.89
2018-12-09T12:23:16.170Z,78.70
2018-12-09T12:25:50.468Z,79.45
2018-12-09T12:28:25.298Z,79.34
2018-12-09T12:33:58.942Z,79.90
2018-12-09T12:36:35.342Z,80.09
2018-12-09T12:39:10.017Z,81.35
2018-12-09T12:41:44.528Z,81.45
2018-12-09T12:44:19.728Z,82.69
2018-12-09T12:46:54.538Z,82.12
2018-12-09T12:49:32.033Z,82.46
2018-12-09T12:55:19.696Z,84.05
2018-12-09T12:58:06.624Z,84.00
2018-12-09T13:00:41.456Z,84.58
2018-12-09T13:06:19.996Z,85.03
2018-12-09T13:08:57.702Z,84.64
2018-12-09T13:11:47.066Z,85.18
2018-12-09T13:14:21.917Z,84.48
2018-12-09T13:16:59.887Z,84.85
2018-12-09T13:19:37.677Z,84.05
2018-12-09T13:22:19.257Z,84.03
2018-12-09T13:24:57.605Z,83.89
2018-12-09T13:27:50.855Z,83.59
2018-12-09T13:30:25.803Z,83.64
2018-12-09T13:33:09.175Z,83.87
2018-12-09T13:35:46.869Z,83.40
2018-12-09T13:38:32.088Z,82.80
2018-12-09T13:41:18.538Z,82.93
2018-12-09T13:43:53.138Z,83.62
2018-12-09T13:46:31.306Z,82.79
2018-12-09T13:49:06.752Z,83.73
2018-12-09T13:51:43.290Z,83.27
2018-12-09T13:54:18.030Z,83.75
2018-12-09T13:56:54.037Z,83.35
2018-12-09T13:59:28.549Z,83.60
2018-12-09T14:02:05.417Z,84.49
2018-12-09T14:04:40.304Z,84.01
2018-12-09T14:07:15.065Z,83.98
2018-12-09T14:09:50.149Z,83.99
2018-12-09T14:15:21.823Z,82.75
2018-12-09T14:24:08.519Z,81.63
2018-12-09T14:26:50.277Z,81.17
2018-12-09T14:29:28.120Z,81.73
2018-12-09T14:32:05.783Z,80.97
2018-12-09T14:34:48.946Z,80.45
2018-12-09T14:37:23.899Z,80.98
2018-12-09T14:40:04.129Z,80.55
2018-12-09T14:42:41.013Z,80.73
2018-12-09T14:45:23.712Z,80.02
2018-12-09T14:48:03.268Z,80.55
2018-12-09T14:50:44.602Z,80.33
2018-12-09T14:53:22.974Z,80.38
2018-12-09T14:56:03.321Z,80.04
2018-12-09T14:58:42.042Z,80.66
2018-12-09T15:01:21.416Z,80.55
2018-12-09T15:03:59.522Z,80.77
2018-12-09T15:06:42.413Z,81.02
2018-12-09T15:09:19.914Z,80.29
2018-12-09T15:12:02.833Z,81.37
2018-12-09T15:17:46.360Z,83.80
2018-12-09T15:20:27.467Z,84.27
2018-12-09T15:23:04.196Z,85.03
2018-12-09T15:25:42.778Z,84.76
2018-12-09T15:28:25.529Z,85.65
2018-12-09T15:31:05.958Z,86.50
2018-12-09T15:33:40.906Z,86.10
2018-12-09T15:36:18.360Z,85.56
2018-12-09T15:38:53.957Z,86.25
2018-12-09T15:41:29.551Z,85.05
2018-12-09T15:44:05.836Z,85.82
2018-12-09T15:46:47.398Z,86.07
2018-12-09T15:49:21.722Z,85.87
2018-12-09T15:52:13.795Z,85.97
2018-12-09T15:54:54.795Z,86.17
2018-12-09T15:57:36.263Z,86.53
2018-12-09T16:00:14.183Z,86.70
2018-12-09T16:02:53.315Z,86.23
2018-12-09T16:05:31.137Z,86.40
2018-12-09T16:08:07.862Z,87.00
2018-12-09T16:10:43.250Z,86.41
2018-12-09T16:13:24.593Z,87.70
2018-12-09T16:16:04.501Z,87.35
2018-12-09T16:18:42.979Z,87.48
2018-12-09T16:21:24.420Z,87.18
2018-12-09T16:24:03.040Z,86.71
2018-12-09T16:26:41.423Z,86.87
2018-12-09T16:29:17.967Z,86.84
2018-12-09T16:31:52.842Z,86.87
2018-12-09T16:34:33.784Z,86.92
2018-12-09T16:37:14.749Z,86.75
2018-12-09T16:39:53.017Z,86.19
2018-12-09T16:42:34.936Z,86.42
2018-12-09T16:45:16.248Z,85.96
2018-12-09T16:48:01.277Z,86.17
2018-12-09T16:50:36.195Z,85.94
2018-12-09T16:53:13.401Z,85.71
2018-12-09T16:55:50.615Z,85.76
2018-12-09T16:58:30.354Z,85.31
2018-12-09T17:01:14.785Z,85.30
2018-12-09T17:03:57.799Z,85.58
2018-12-09T17:06:32.419Z,85.52
2018-12-09T17:09:08.160Z,84.78
2018-12-09T17:11:46.059Z,84.68
2018-12-09T17:14:23.758Z,84.68
2018-12-09T17:17:05.987Z,84.79
2018-12-09T17:22:27.149Z,84.96
2018-12-09T17:25:07.758Z,85.44
2018-12-09T17:27:55.623Z,85.26
2018-12-09T17:30:39.692Z,85.28
2018-12-09T17:33:19.750Z,85.52
2018-12-09T17:36:01.805Z,85.42
2018-12-09T17:38:40.233Z,85.34
2018-12-09T17:41:25.075Z,85.96
2018-12-09T17:44:03.228Z,85.93
2018-12-09T17:46:51.684Z,86.59
2018-12-09T17:49:34.868Z,87.38
2018-12-09T17:52:23.402Z,86.83
2018-12-09T17:55:04.683Z,86.76
2018-12-09T17:57:39.235Z,87.04
2018-12-09T18:00:19.774Z,87.10
2018-12-09T18:02:57.985Z,87.95
2018-12-09T18:05:40.945Z,87.81
2018-12-09T18:08:21.995Z,87.44
2018-12-09T18:11:01.751Z,87.62
2018-12-09T18:13:39.891Z,88.04
2018-12-09T18:16:22.344Z,87.93
2018-12-09T18:19:00.842Z,87.65
2018-12-09T18:29:09.714Z,88.13
2018-12-09T18:31:45.008Z,87.96
2018-12-09T18:34:20.326Z,88.11
2018-12-09T18:36:58.815Z,87.50
2018-12-09T18:39:37.654Z,87.45
2018-12-09T18:45:26.815Z,87.70
2018-12-09T18:48:07.881Z,87.92
2018-12-09T18:50:46.859Z,87.61
2018-12-09T18:56:26.809Z,87.48
2018-12-09T18:59:01.277Z,87.67
2018-12-09T19:01:37.558Z,87.83
2018-12-09T19:04:19.235Z,87.53
2018-12-09T19:06:54.628Z,87.77
2018-12-09T19:09:30.154Z,88.24
2018-12-09T19:12:05.284Z,87.91
2018-12-09T19:14:40.562Z,87.76
2018-12-09T19:20:12.291Z,88.15
2018-12-09T19:22:53.835Z,88.63
2018-12-09T19:25:34.860Z,88.07
2018-12-09T19:28:25.385Z,87.64
2018-12-09T19:30:59.886Z,87.96
2018-12-09T19:33:36.206Z,88.27
2018-12-09T19:36:17.338Z,88.67
2018-12-09T19:39:02.486Z,88.36
2018-12-09T19:41:55.291Z,88.33
2018-12-09T19:44:50.759Z,87.98
2018-12-09T19:47:28.669Z,88.32
2018-12-09T19:50:07.743Z,89.08
2018-12-09T19:53:00.939Z,89.30
2018-12-09T19:55:35.531Z,89.58
2018-12-09T19:58:12.448Z,88.51
2018-12-09T20:00:50.771Z,88.43
2018-12-09T20:03:25.905Z,88.23
2018-12-09T20:06:03.418Z,88.38
2018-12-09T20:08:37.974Z,88.70
2018-12-09T20:11:12.937Z,89.05
2018-12-09T20:13:55.868Z,88.92
2018-12-09T20:16:33.090Z,88.87
2018-12-09T20:19:07.623Z,88.95
2018-12-09T20:21:43.098Z,89.05
2018-12-09T20:24:17.659Z,89.28
2018-12-09T20:26:52.693Z,89.08
2018-12-09T20:29:28.719Z,89.10
2018-12-09T20:32:03.549Z,89.18
2018-12-09T20:34:37.818Z,89.15
2018-12-09T20:37:12.655Z,89.04
2018-12-09T20:39:47.719Z,88.46
2018-12-09T20:42:22.787Z,87.58
2018-12-09T20:44:57.351Z,87.58
2018-12-09T20:47:31.688Z,87.44
2018-12-09T20:50:07.083Z,88.12
2018-12-09T20:52:41.935Z,87.37
2018-12-09T20:55:16.258Z,87.55
2018-12-09T20:57:50.539Z,87.64
2018-12-09T21:00:25.882Z,87.65
2018-12-09T21:06:08.478Z,87.67
2018-12-09T21:11:39.811Z,87.89
2018-12-09T21:14:14.665Z,88.57
2018-12-09T21:16:49.669Z,88.14
2018-12-09T21:19:37.090Z,88.17
2018-12-09T21:22:11.714Z,88.25
2018-12-09T21:24:46.207Z,88.24
2018-12-09T21:27:20.600Z,88.40
2018-12-09T21:29:55.265Z,88.61
2018-12-09T21:32:30.050Z,88.37
2018-12-09T21:38:19.203Z,87.48
2018-12-09T21:40:53.758Z,87.64
2018-12-09T21:43:28.463Z,86.89
2018-12-09T21:46:03.746Z,86.26
2018-12-09T21:48:38.173Z,85.79
2018-12-09T21:51:12.798Z,85.23
2018-12-09T21:53:55.299Z,85.07
2018-12-09T21:56:52.286Z,85.50
2018-12-09T21:59:26.702Z,85.55
2018-12-09T22:05:06.715Z,85.74
2018-12-09T22:07:51.608Z,84.87
2018-12-09T22:10:26.008Z,84.04
2018-12-09T22:13:01.230Z,84.04
2018-12-09T22:15:38.795Z,84.57
2018-12-09T22:18:29.915Z,84.32
2018-12-09T22:21:10.635Z,84.58
2018-12-09T22:23:48.567Z,85.42
2018-12-09T22:26:33.825Z,86.08
2018-12-09T22:29:23.472Z,85.77
2018-12-09T22:32:02.030Z,85.29
2018-12-09T22:34:51.561Z,86.01
2018-12-09T22:40:27.543Z,86.92
2018-12-09T22:43:08.864Z,86.72
2018-12-09T22:45:46.536Z,86.88
2018-12-09T22:48:37.811Z,87.20
2018-12-09T22:51:18.677Z,86.68
2018-12-09T22:53:59.126Z,87.14
2018-12-09T22:56:51.319Z,87.42
2018-12-09T22:59:43.053Z,87.52
2018-12-09T23:02:28.637Z,87.67
2018-12-09T23:08:08.370Z,88.52
2018-12-09T23:13:49.408Z,89.93
2018-12-09T23:16:34.493Z,89.73
2018-12-09T23:19:23.219Z,89.83
2018-12-09T23:21:57.842Z,89.75
2018-12-09T23:24:32.323Z,89.67
2018-12-09T23:27:13.098Z,89.01
2018-12-09T23:29:47.815Z,89.56
2018-12-09T23:32:43.032Z,89.66
2018-12-09T23:35:17.698Z,89.82
2018-12-09T23:37:52.641Z,89.92
2018-12-09T23:40:29.439Z,90.00
2018-12-09T23:43:04.239Z,90.09
2018-12-09T23:45:39.658Z,90.06
2018-12-09T23:48:26.354Z,90.05
2018-12-09T23:51:00.765Z,89.15
2018-12-09T23:59:31.661Z,89.44
